Time,TemperatureF,DewpointF,PressureIn,WindDirection,WindDirectionDegrees,WindSpeedMPH,WindSpeedGustMPH,Humidity,HourlyPrecipIn,Conditions,Clouds,dailyrainin,SoftwareType,DateUTC
2013-05-18 00:01:00,73.6,65.5,29.76,West,270,4.6,4.6,76,0.00,CLR,SKC,0.00,WeatherDisplay:10.37,2013-05-18 04:01:00,
2013-05-18 00:02:00,73.6,65.5,29.76,West,270,4.6,4.6,76,0.00,CLR,SKC,0.00,WeatherDisplay:10.37,2013-05-18 04:02:00,
2013-05-18 00:03:00,73.6,65.5,29.76,West,270,4.6,4.6,76,0.00,CLR,SKC,0.00,WeatherDisplay:10.37,2013-05-18 04:03:00,
2013-05-18 00:06:00,73.6,65.5,29.76,West,270,4.6,4.6,76,0.00,CLR,SKC,0.00,WeatherDisplay:10.37,2013-05-18 04:06:00,
2013-05-18 00:07:00,73.6,65.5,29.76,West,270,4.6,4.6,76,0.00,CLR,SKC,0.00,WeatherDisplay:10.37,2013-05-18 04:07:00,
2013-05-18 00:12:00,72.9,65.2,29.76,NW,315,3.5,3.5,77,0.00,CLR,SKC,0.00,WeatherDisplay:10.37,2013-05-18 04:12:00,
2013-05-18 00:17:00,72.7,65.1,29.76,NW,315,3.5,3.5,77,0.00,CLR,SKC,0.00,WeatherDisplay:10.37,2013-05-18 04:17:00,
2013-05-18 00:22:00,72.5,65.2,29.76,North,0,3.5,3.5,78,0.00,CLR,SKC,0.00,WeatherDisplay:10.37,2013-05-18 04:22:00,
2013-05-18 00:27:00,72.5,65.2,29.76,NNE,14,3.5,3.5,78,0.00,CLR,SKC,0.00,WeatherDisplay:10.37,2013-05-18 04:27:00,
2013-05-18 00:32:00,72.1,64.9,29.76,NW,315,3.5,3.5,78,0.00,CLR,SKC,0.00,WeatherDisplay:10.37,2013-05-18 04:32:00,
2013-05-18 00:37:00,72.1,64.9,29.76,NW,315,4.6,4.6,78,0.00,CLR,SKC,0.00,WeatherDisplay:10.37,2013-05-18 04:37:00,
2013-05-18 00:42:00,72.1,64.9,29.76,North,0,3.5,3.5,78,0.00,CLR,SKC,0.00,WeatherDisplay:10.37,2013-05-18 04:42:00,
2013-05-18 00:47:00,72.0,64.7,29.76,North,0,5.8,5.8,78,0.00,CLR,SKC,0.00,WeatherDisplay:10.37,2013-05-18 04:47:00,
2013-05-18 00:52:00,72.0,64.7,29.76,North,0,4.6,4.6,78,0.00,CLR,SKC,0.00,WeatherDisplay:10.37,2013-05-18 04:52:00,
2013-05-18 00:57:00,71.8,64.5,29.76,NW,315,3.5,3.5,78,0.00,CLR,SKC,0.00,WeatherDisplay:10.37,2013-05-18 04:57:00,
2013-05-18 01:02:00,71.8,64.5,29.76,NW,315,3.5,3.5,78,0.00,CLR,SKC,0.00,WeatherDisplay:10.37,2013-05-18 05:02:00,
2013-05-18 01:07:00,71.6,64.4,29.76,North,0,4.6,4.6,78,0.00,CLR,SKC,0.00,WeatherDisplay:10.37,2013-05-18 05:07:00,
2013-05-18 01:12:00,71.4,64.6,29.76,NW,315,3.5,3.5,79,0.00,CLR,SKC,0.00,WeatherDisplay:10.37,2013-05-18 05:12:00,
2013-05-18 01:17:00,71.4,64.9,29.76,WNW,292,4.6,4.6,80,0.00,CLR,SKC,0.00,WeatherDisplay:10.37,2013-05-18 05:17:00,
2013-05-18 01:22:00,71.2,64.8,29.76,NW,315,3.5,3.5,80,0.00,CLR,SKC,0.00,WeatherDisplay:10.37,2013-05-18 05:22:00,
2013-05-18 01:27:00,71.1,64.6,29.75,NW,315,3.5,3.5,80,0.00,CLR,SKC,0.00,WeatherDisplay:10.37,2013-05-18 05:27:00,
2013-05-18 01:32:00,71.1,64.6,29.76,NNW,338,3.5,3.5,80,0.00,CLR,SKC,0.00,WeatherDisplay:10.37,2013-05-18 05:32:00,
2013-05-18 01:37:00,70.9,64.8,29.75,North,0,3.5,3.5,81,0.00,CLR,SKC,0.00,WeatherDisplay:10.37,2013-05-18 05:37:00,
2013-05-18 01:42:00,70.5,64.4,29.76,NW,315,3.5,3.5,81,0.00,CLR,SKC,0.00,WeatherDisplay:10.37,2013-05-18 05:42:00,
2013-05-18 01:47:00,70.3,64.6,29.76,North,0,2.3,2.3,82,0.00,CLR,SKC,0.00,WeatherDisplay:10.37,2013-05-18 05:47:00,
2013-05-18 01:52:00,70.2,64.4,29.76,North,0,1.1,1.1,82,0.00,CLR,SKC,0.00,WeatherDisplay:10.37,2013-05-18 05:52:00,
2013-05-18 01:57:00,69.8,64.4,29.75,WNW,292,3.5,3.5,83,0.00,CLR,SKC,0.00,WeatherDisplay:10.37,2013-05-18 05:57:00,
2013-05-18 02:02:00,69.8,64.4,29.75,NW,315,2.3,2.3,83,0.00,CLR,SKC,0.00,WeatherDisplay:10.37,2013-05-18 06:02:00,
2013-05-18 02:07:00,69.8,64.4,29.75,NW,315,2.3,2.3,83,0.00,CLR,SKC,0.00,WeatherDisplay:10.37,2013-05-18 06:07:00,
2013-05-18 02:12:00,69.4,64.4,29.75,NW,315,1.1,1.1,84,0.00,CLR,SKC,0.00,WeatherDisplay:10.37,2013-05-18 06:12:00,
2013-05-18 02:17:00,69.1,64.4,29.75,NW,315,1.1,1.1,85,0.00,CLR,SKC,0.00,WeatherDisplay:10.37,2013-05-18 06:17:00,
2013-05-18 02:22:00,69.1,64.4,29.75,North,0,1.1,1.6,85,0.00,CLR,SKC,0.00,WeatherDisplay:10.37,2013-05-18 06:22:00,
2013-05-18 02:27:00,68.9,64.2,29.75,NW,315,2.3,2.3,85,0.00,CLR,SKC,0.00,WeatherDisplay:10.37,2013-05-18 06:27:00,
2013-05-18 02:32:00,68.7,64.0,29.75,NNW,338,1.1,0.0,85,0.00,CLR,SKC,0.00,WeatherDisplay:10.37,2013-05-18 06:32:00,
2013-05-18 02:37:00,68.7,64.4,29.75,NW,315,1.1,1.1,86,0.00,CLR,SKC,0.00,WeatherDisplay:10.37,2013-05-18 06:37:00,
2013-05-18 02:42:00,68.5,64.2,29.75,North,0,2.3,2.3,86,0.00,CLR,SKC,0.00,WeatherDisplay:10.37,2013-05-18 06:42:00,
2013-05-18 02:47:00,68.4,64.0,29.75,North,0,1.1,0.0,86,0.00,CLR,SKC,0.00,WeatherDisplay:10.37,2013-05-18 06:47:00,
2013-05-18 02:52:00,68.2,63.8,29.75,NW,315,1.1,1.6,86,0.00,CLR,SKC,0.00,WeatherDisplay:10.37,2013-05-18 06:52:00,
2013-05-18 02:57:00,67.5,63.5,29.75,NW,315,1.6,1.6,87,0.00,CLR,SKC,0.00,WeatherDisplay:10.37,2013-05-18 06:57:00,
2013-05-18 03:02:00,67.5,64.1,29.75,North,0,1.1,1.1,89,0.00,CLR,SKC,0.00,WeatherDisplay:10.37,2013-05-18 07:02:00,
2013-05-18 03:07:00,67.3,63.9,29.75,NW,315,1.1,0.0,89,0.00,CLR,SKC,0.00,WeatherDisplay:10.37,2013-05-18 07:07:00,
2013-05-18 03:12:00,67.1,63.7,29.75,NW,315,0.0,0.0,89,0.00,CLR,SKC,0.00,WeatherDisplay:10.37,2013-05-18 07:12:00,
2013-05-18 03:17:00,66.9,63.6,29.75,South,180,0.0,0.0,89,0.00,CLR,SKC,0.00,WeatherDisplay:10.37,2013-05-18 07:17:00,
2013-05-18 03:22:00,66.9,63.9,29.75,North,0,0.0,0.0,90,0.00,CLR,SKC,0.00,WeatherDisplay:10.37,2013-05-18 07:22:00,
2013-05-18 03:27:00,66.7,63.7,29.76,North,0,2.3,0.0,90,0.00,CLR,SKC,0.00,WeatherDisplay:10.37,2013-05-18 07:27:00,
2013-05-18 03:32:00,66.6,63.5,29.75,SE,135,1.1,0.0,90,0.00,CLR,SKC,0.00,WeatherDisplay:10.37,2013-05-18 07:32:00,
2013-05-18 03:37:00,66.6,63.9,29.75,North,0,1.1,0.0,91,0.00,CLR,SKC,0.00,WeatherDisplay:10.37,2013-05-18 07:37:00,
2013-05-18 03:42:00,66.4,63.7,29.76,NW,315,0.0,0.7,91,0.00,CLR,SKC,0.00,WeatherDisplay:10.37,2013-05-18 07:42:00,
2013-05-18 03:47:00,66.0,63.6,29.76,NNE,22,1.1,0.0,92,0.00,CLR,SKC,0.00,WeatherDisplay:10.37,2013-05-18 07:47:00,
2013-05-18 03:52:00,65.8,63.5,29.76,SW,225,0.0,0.0,92,0.00,CLR,SKC,0.00,WeatherDisplay:10.37,2013-05-18 07:52:00,
2013-05-18 03:57:00,66.0,63.9,29.76,North,0,1.1,0.0,93,0.00,CLR,SKC,0.00,WeatherDisplay:10.37,2013-05-18 07:57:00,
2013-05-18 04:02:00,66.0,63.9,29.76,North,0,0.0,0.0,93,0.00,CLR,SKC,0.00,WeatherDisplay:10.37,2013-05-18 08:02:00,
2013-05-18 04:07:00,66.2,63.8,29.76,North,0,0.0,0.0,92,0.00,CLR,SKC,0.00,WeatherDisplay:10.37,2013-05-18 08:07:00,
2013-05-18 04:12:00,66.2,63.8,29.76,North,0,1.1,1.1,92,0.00,CLR,SKC,0.00,WeatherDisplay:10.37,2013-05-18 08:12:00,
2013-05-18 04:17:00,65.8,63.8,29.76,NW,315,0.0,0.0,93,0.00,CLR,SKC,0.00,WeatherDisplay:10.37,2013-05-18 08:17:00,
2013-05-18 04:22:00,65.8,63.8,29.76,NW,315,0.0,0.0,93,0.00,CLR,SKC,0.00,WeatherDisplay:10.37,2013-05-18 08:22:00,
2013-05-18 04:27:00,65.7,63.9,29.77,NW,315,0.0,0.0,94,0.00,CLR,SKC,0.00,WeatherDisplay:10.37,2013-05-18 08:27:00,
2013-05-18 04:32:00,65.7,63.9,29.77,NW,315,0.0,0.0,94,0.00,CLR,SKC,0.00,WeatherDisplay:10.37,2013-05-18 08:32:00,
2013-05-18 04:37:00,65.5,63.7,29.77,NW,315,0.0,0.0,94,0.00,CLR,SKC,0.00,WeatherDisplay:10.37,2013-05-18 08:37:00,
2013-05-18 04:42:00,65.3,63.5,29.76,NW,315,0.0,0.0,94,0.00,CLR,SKC,0.00,WeatherDisplay:10.37,2013-05-18 08:42:00,
2013-05-18 04:47:00,65.3,63.5,29.77,NW,315,0.0,0.0,94,0.00,CLR,SKC,0.00,WeatherDisplay:10.37,2013-05-18 08:47:00,
2013-05-18 04:52:00,65.3,63.5,29.77,North,0,1.1,0.0,94,0.00,CLR,SKC,0.00,WeatherDisplay:10.37,2013-05-18 08:52:00,
2013-05-18 04:57:00,65.5,64.0,29.77,East,90,0.0,0.0,95,0.00,CLR,SKC,0.00,WeatherDisplay:10.37,2013-05-18 08:57:00,
2013-05-18 05:02:00,65.7,64.2,29.77,East,90,1.1,0.0,95,0.00,CLR,SKC,0.00,WeatherDisplay:10.37,2013-05-18 09:02:00,
2013-05-18 05:07:00,65.8,64.4,29.77,SE,135,1.1,1.1,95,0.00,CLR,SKC,0.00,WeatherDisplay:10.37,2013-05-18 09:07:00,
2013-05-18 05:12:00,66.0,64.5,29.77,SE,135,2.3,2.3,95,0.00,CLR,SKC,0.00,WeatherDisplay:10.37,2013-05-18 09:12:00,
2013-05-18 05:17:00,66.2,64.4,29.77,SE,135,1.1,0.0,94,0.00,CLR,SKC,0.00,WeatherDisplay:10.37,2013-05-18 09:17:00,
2013-05-18 05:22:00,66.2,64.4,29.77,SE,135,1.1,0.0,94,0.00,CLR,SKC,0.00,WeatherDisplay:10.37,2013-05-18 09:22:00,
2013-05-18 05:27:00,65.8,64.4,29.77,North,0,0.0,0.0,95,0.00,CLR,SKC,0.00,WeatherDisplay:10.37,2013-05-18 09:27:00,
2013-05-18 05:32:00,65.5,64.0,29.77,North,0,1.1,0.0,95,0.00,CLR,SKC,0.00,WeatherDisplay:10.37,2013-05-18 09:32:00,
2013-05-18 05:37:00,65.3,63.8,29.77,North,0,0.0,0.0,95,0.00,CLR,SKC,0.00,WeatherDisplay:10.37,2013-05-18 09:37:00,
2013-05-18 05:42:00,64.9,63.5,29.77,North,0,0.0,0.0,95,0.00,CLR,SKC,0.00,WeatherDisplay:10.37,2013-05-18 09:42:00,
2013-05-18 05:47:00,64.8,63.3,29.77,North,0,0.0,0.0,95,0.00,CLR,SKC,0.00,WeatherDisplay:10.37,2013-05-18 09:47:00,
2013-05-18 05:52:00,64.8,63.3,29.77,North,0,0.0,0.0,95,0.00,CLR,SKC,0.00,WeatherDisplay:10.37,2013-05-18 09:52:00,
2013-05-18 05:57:00,64.6,63.1,29.77,East,90,0.0,0.0,95,0.00,CLR,SKC,0.00,WeatherDisplay:10.37,2013-05-18 09:57:00,
2013-05-18 06:02:00,64.8,63.3,29.77,North,0,1.1,0.0,95,0.00,CLR,SKC,0.00,WeatherDisplay:10.37,2013-05-18 10:02:00,
2013-05-18 06:07:00,64.8,63.6,29.78,North,0,1.1,0.0,96,0.00,CLR,SKC,0.00,WeatherDisplay:10.37,2013-05-18 10:07:00,
2013-05-18 06:12:00,64.6,63.4,29.78,North,0,0.0,0.0,96,0.00,CLR,SKC,0.00,WeatherDisplay:10.37,2013-05-18 10:12:00,
2013-05-18 06:17:00,64.6,63.4,29.78,NW,315,1.1,0.0,96,0.00,CLR,SKC,0.00,WeatherDisplay:10.37,2013-05-18 10:17:00,
2013-05-18 06:22:00,64.4,63.2,29.79,NE,45,0.0,0.0,96,0.00,CLR,SKC,0.00,WeatherDisplay:10.37,2013-05-18 10:22:00,
2013-05-18 06:27:00,64.6,63.4,29.79,North,0,1.1,0.0,96,0.00,CLR,SKC,0.00,WeatherDisplay:10.37,2013-05-18 10:27:00,
2013-05-18 06:32:00,64.6,63.4,29.79,South,180,1.1,0.0,96,0.00,CLR,SKC,0.00,WeatherDisplay:10.37,2013-05-18 10:32:00,
2013-05-18 06:37:00,64.8,63.6,29.79,North,0,2.3,2.3,96,0.00,CLR,SKC,0.00,WeatherDisplay:10.37,2013-05-18 10:37:00,
2013-05-18 06:42:00,64.8,63.9,29.79,North,0,0.0,0.0,97,0.00,CLR,SKC,0.00,WeatherDisplay:10.37,2013-05-18 10:42:00,
2013-05-18 06:47:00,64.8,63.9,29.79,North,0,0.0,0.0,97,0.00,CLR,SKC,0.00,WeatherDisplay:10.37,2013-05-18 10:47:00,
2013-05-18 06:52:00,64.9,64.1,29.79,North,0,0.0,0.0,97,0.00,CLR,SKC,0.00,WeatherDisplay:10.37,2013-05-18 10:52:00,
2013-05-18 06:57:00,65.1,64.2,29.79,NW,315,1.1,0.0,97,0.00,CLR,SKC,0.00,WeatherDisplay:10.37,2013-05-18 10:57:00,
2013-05-18 07:02:00,65.1,64.2,29.80,NW,315,0.0,0.0,97,0.00,CLR,SKC,0.00,WeatherDisplay:10.37,2013-05-18 11:02:00,
2013-05-18 07:07:00,65.5,64.6,29.80,NW,315,0.0,0.0,97,0.00,CLR,SKC,0.00,WeatherDisplay:10.37,2013-05-18 11:07:00,
2013-05-18 07:12:00,66.0,65.1,29.80,SE,135,1.1,0.0,97,0.00,CLR,SKC,0.00,WeatherDisplay:10.37,2013-05-18 11:12:00,
2013-05-18 07:17:00,66.7,65.6,29.80,NE,45,1.1,0.0,96,0.00,CLR,SKC,0.00,WeatherDisplay:10.37,2013-05-18 11:17:00,
2013-05-18 07:22:00,67.3,66.1,29.80,NE,45,1.1,1.1,96,0.00,CLR,SKC,0.00,WeatherDisplay:10.37,2013-05-18 11:22:00,
2013-05-18 07:27:00,67.8,66.3,29.80,North,0,2.3,0.0,95,0.00,CLR,SKC,0.00,WeatherDisplay:10.37,2013-05-18 11:27:00,
2013-05-18 07:32:00,68.2,66.4,29.80,North,0,1.1,0.0,94,0.00,CLR,SKC,0.00,WeatherDisplay:10.37,2013-05-18 11:32:00,
2013-05-18 07:37:00,68.7,66.6,29.80,SE,135,1.1,1.1,93,0.00,CLR,SKC,0.00,WeatherDisplay:10.37,2013-05-18 11:37:00,
2013-05-18 07:42:00,69.3,67.1,29.81,North,0,1.1,1.1,93,0.00,CLR,SKC,0.00,WeatherDisplay:10.37,2013-05-18 11:42:00,
2013-05-18 07:47:00,69.6,66.9,29.81,North,0,2.3,2.3,91,0.00,CLR,SKC,0.00,WeatherDisplay:10.37,2013-05-18 11:47:00,
2013-05-18 07:52:00,69.8,66.4,29.81,North,0,2.3,2.3,89,0.00,CLR,SKC,0.00,WeatherDisplay:10.37,2013-05-18 11:52:00,
2013-05-18 07:57:00,70.0,66.3,29.81,NW,315,2.3,0.0,88,0.00,CLR,SKC,0.00,WeatherDisplay:10.37,2013-05-18 11:57:00,
2013-05-18 08:02:00,70.3,66.6,29.81,SE,135,1.1,0.0,88,0.00,CLR,SKC,0.00,WeatherDisplay:10.37,2013-05-18 12:02:00,
2013-05-18 08:07:00,70.9,66.8,29.81,NW,315,1.1,1.1,87,0.00,CLR,SKC,0.00,WeatherDisplay:10.37,2013-05-18 12:07:00,
2013-05-18 08:12:00,71.1,66.7,29.81,East,90,2.3,0.0,86,0.00,CLR,SKC,0.00,WeatherDisplay:10.37,2013-05-18 12:12:00,
2013-05-18 08:17:00,71.2,66.5,29.81,NNW,338,3.5,3.5,85,0.00,CLR,SKC,0.00,WeatherDisplay:10.37,2013-05-18 12:17:00,
2013-05-18 08:22:00,71.4,66.7,29.82,NW,315,3.5,3.5,85,0.00,CLR,SKC,0.00,WeatherDisplay:10.37,2013-05-18 12:22:00,
2013-05-18 08:27:00,71.6,66.5,29.82,SW,225,1.1,0.0,84,0.00,CLR,SKC,0.00,WeatherDisplay:10.37,2013-05-18 12:27:00,
2013-05-18 08:32:00,72.0,66.9,29.81,NW,315,3.5,0.0,84,0.00,CLR,SKC,0.00,WeatherDisplay:10.37,2013-05-18 12:32:00,
2013-05-18 08:37:00,71.8,66.3,29.81,East,90,3.5,3.5,83,0.00,CLR,SKC,0.00,WeatherDisplay:10.37,2013-05-18 12:37:00,
2013-05-18 08:42:00,72.3,66.9,29.81,NW,315,1.1,1.1,83,0.00,CLR,SKC,0.00,WeatherDisplay:10.37,2013-05-18 12:42:00,
2013-05-18 08:47:00,72.7,66.9,29.81,North,0,2.3,2.3,82,0.00,CLR,SKC,0.00,WeatherDisplay:10.37,2013-05-18 12:47:00,
2013-05-18 08:52:00,73.4,67.6,29.81,NE,45,2.3,2.3,82,0.00,CLR,SKC,0.00,WeatherDisplay:10.37,2013-05-18 12:52:00,
2013-05-18 08:57:00,74.5,67.9,29.81,North,0,4.6,4.6,80,0.00,CLR,SKC,0.00,WeatherDisplay:10.37,2013-05-18 12:57:00,
2013-05-18 09:02:00,74.3,67.7,29.82,NW,315,5.8,5.8,80,0.00,CLR,SKC,0.00,WeatherDisplay:10.37,2013-05-18 13:02:00,
2013-05-18 09:07:00,74.7,67.3,29.82,NW,315,3.5,3.5,78,0.00,CLR,SKC,0.00,WeatherDisplay:10.37,2013-05-18 13:07:00,
2013-05-18 09:12:00,74.8,67.5,29.82,North,0,4.6,4.6,78,0.00,CLR,SKC,0.00,WeatherDisplay:10.37,2013-05-18 13:12:00,
2013-05-18 09:17:00,74.8,67.5,29.82,North,0,4.6,4.6,78,0.00,CLR,SKC,0.00,WeatherDisplay:10.37,2013-05-18 13:17:00,
2013-05-18 09:22:00,74.7,67.3,29.82,NW,315,4.6,4.6,78,0.00,CLR,SKC,0.00,WeatherDisplay:10.37,2013-05-18 13:22:00,
2013-05-18 09:27:00,75.2,67.9,29.83,NW,315,3.5,3.5,78,0.00,CLR,SKC,0.00,WeatherDisplay:10.37,2013-05-18 13:27:00,
2013-05-18 09:32:00,75.6,67.8,29.83,WNW,292,5.8,5.8,77,0.00,CLR,SKC,0.00,WeatherDisplay:10.37,2013-05-18 13:32:00,
2013-05-18 09:37:00,76.3,68.2,29.83,NW,315,6.9,6.9,76,0.00,CLR,SKC,0.00,WeatherDisplay:10.37,2013-05-18 13:37:00,
2013-05-18 09:42:00,75.6,67.5,29.83,North,0,8.1,8.1,76,0.00,CLR,SKC,0.00,WeatherDisplay:10.37,2013-05-18 13:42:00,
2013-05-18 09:47:00,75.0,67.3,29.83,North,0,5.8,5.8,77,0.00,CLR,SKC,0.00,WeatherDisplay:10.37,2013-05-18 13:47:00,
2013-05-18 09:52:00,75.2,67.5,29.83,WNW,292,6.9,6.9,77,0.00,CLR,SKC,0.00,WeatherDisplay:10.37,2013-05-18 13:52:00,
2013-05-18 09:57:00,75.0,67.3,29.82,WNW,292,8.1,8.1,77,0.00,CLR,SKC,0.00,WeatherDisplay:10.37,2013-05-18 13:57:00,
2013-05-18 10:02:00,75.2,67.5,29.83,NW,315,5.8,5.8,77,0.00,CLR,SKC,0.00,WeatherDisplay:10.37,2013-05-18 14:02:00,
2013-05-18 10:07:00,76.3,68.2,29.83,NW,315,6.9,6.9,76,0.00,CLR,SKC,0.00,WeatherDisplay:10.37,2013-05-18 14:07:00,
2013-05-18 10:12:00,76.5,67.9,29.83,WNW,292,6.9,6.9,75,0.00,CLR,SKC,0.00,WeatherDisplay:10.37,2013-05-18 14:12:00,
2013-05-18 10:17:00,77.0,68.1,29.83,NW,315,5.8,5.8,74,0.00,CLR,SKC,0.00,WeatherDisplay:10.37,2013-05-18 14:17:00,
2013-05-18 10:22:00,77.7,68.4,29.82,NW,315,3.5,3.5,73,0.00,CLR,SKC,0.00,WeatherDisplay:10.37,2013-05-18 14:22:00,
2013-05-18 10:27:00,78.1,67.9,29.83,North,0,9.2,9.2,71,0.00,CLR,SKC,0.00,WeatherDisplay:10.37,2013-05-18 14:27:00,
2013-05-18 10:32:00,77.0,67.7,29.82,NW,315,4.6,4.6,73,0.00,CLR,SKC,0.00,WeatherDisplay:10.37,2013-05-18 14:32:00,
2013-05-18 10:37:00,76.1,67.6,29.83,North,0,5.8,5.8,75,0.00,CLR,SKC,0.00,WeatherDisplay:10.37,2013-05-18 14:37:00,
2013-05-18 10:42:00,75.0,67.3,29.83,North,0,5.8,5.8,77,0.00,CLR,SKC,0.00,WeatherDisplay:10.37,2013-05-18 14:42:00,
2013-05-18 10:47:00,74.1,66.8,29.83,North,0,5.8,5.8,78,0.00,CLR,SKC,0.00,WeatherDisplay:10.37,2013-05-18 14:47:00,
2013-05-18 10:52:00,73.6,66.3,29.83,North,0,6.9,6.9,78,0.00,CLR,SKC,0.00,WeatherDisplay:10.37,2013-05-18 14:52:00,
2013-05-18 10:57:00,73.4,66.9,29.83,West,270,4.6,4.6,80,0.00,CLR,SKC,0.00,WeatherDisplay:10.37,2013-05-18 14:57:00,
2013-05-18 11:02:00,73.0,67.2,29.83,North,0,3.5,3.5,82,0.00,CLR,SKC,0.00,WeatherDisplay:10.37,2013-05-18 15:02:00,
2013-05-18 11:07:00,72.5,66.7,29.83,NW,315,1.1,1.1,82,0.05,RA,SKC,0.05,WeatherDisplay:10.37,2013-05-18 15:07:00,
2013-05-18 11:12:00,71.8,66.7,29.83,NW,315,3.5,3.5,84,0.08,RA,SKC,0.08,WeatherDisplay:10.37,2013-05-18 15:12:00,
2013-05-18 11:17:00,71.2,67.2,29.82,North,0,3.5,3.5,87,0.11,RA,SKC,0.11,WeatherDisplay:10.37,2013-05-18 15:17:00,
2013-05-18 11:22:00,70.9,67.8,29.83,SE,135,1.6,0.0,90,0.11,RA,SKC,0.11,WeatherDisplay:10.37,2013-05-18 15:22:00,
2013-05-18 11:27:00,71.2,68.2,29.83,NW,315,2.3,2.3,90,0.11,CLR,SKC,0.11,WeatherDisplay:10.37,2013-05-18 15:27:00,
2013-05-18 11:32:00,71.4,69.0,29.83,North,0,3.5,3.5,92,0.11,CLR,SKC,0.11,WeatherDisplay:10.37,2013-05-18 15:32:00,
2013-05-18 11:37:00,71.8,69.0,29.83,North,0,8.1,8.1,91,0.11,CLR,SKC,0.11,WeatherDisplay:10.37,2013-05-18 15:37:00,
2013-05-18 11:42:00,71.6,68.8,29.83,NW,315,4.6,4.6,91,0.11,CLR,SKC,0.11,WeatherDisplay:10.37,2013-05-18 15:42:00,
2013-05-18 11:47:00,72.3,68.9,29.83,North,0,5.8,5.8,89,0.11,CLR,SKC,0.11,WeatherDisplay:10.37,2013-05-18 15:47:00,
2013-05-18 11:52:00,73.2,69.5,29.83,North,0,3.5,3.5,88,0.11,CLR,SKC,0.11,WeatherDisplay:10.37,2013-05-18 15:52:00,
2013-05-18 11:57:00,74.5,70.4,29.84,NNW,338,5.8,5.8,87,0.11,CLR,SKC,0.11,WeatherDisplay:10.37,2013-05-18 15:57:00,
2013-05-18 12:02:00,75.6,70.4,29.83,North,0,5.8,5.8,84,0.11,CLR,SKC,0.11,WeatherDisplay:10.37,2013-05-18 16:02:00,
2013-05-18 12:07:00,76.8,70.5,29.83,North,0,9.2,9.2,81,0.06,CLR,SKC,0.11,WeatherDisplay:10.37,2013-05-18 16:07:00,
2013-05-18 12:12:00,77.2,70.9,29.83,North,0,9.2,9.2,81,0.02,CLR,SKC,0.11,WeatherDisplay:10.37,2013-05-18 16:12:00,
2013-05-18 12:17:00,77.7,70.7,29.83,North,0,6.9,6.9,79,0.00,CLR,SKC,0.11,WeatherDisplay:10.37,2013-05-18 16:17:00,
2013-05-18 12:22:00,78.6,71.2,29.83,NW,315,4.6,4.6,78,0.00,CLR,SKC,0.11,WeatherDisplay:10.37,2013-05-18 16:22:00,
2013-05-18 12:27:00,78.8,70.6,29.83,NW,315,3.5,3.5,76,0.00,CLR,SKC,0.11,WeatherDisplay:10.37,2013-05-18 16:27:00,
2013-05-18 12:32:00,79.0,70.0,29.83,NE,45,4.6,4.6,74,0.00,CLR,SKC,0.11,WeatherDisplay:10.37,2013-05-18 16:32:00,
2013-05-18 12:37:00,79.2,70.2,29.82,NNW,338,4.6,4.6,74,0.00,CLR,SKC,0.11,WeatherDisplay:10.37,2013-05-18 16:37:00,
2013-05-18 12:42:00,79.7,70.3,29.83,NW,315,3.5,3.5,73,0.00,CLR,SKC,0.11,WeatherDisplay:10.37,2013-05-18 16:42:00,
2013-05-18 12:47:00,79.9,70.4,29.83,NW,315,1.6,0.0,73,0.00,CLR,SKC,0.11,WeatherDisplay:10.37,2013-05-18 16:47:00,
2013-05-18 12:52:00,79.0,69.2,29.83,NW,315,4.6,4.6,72,0.00,CLR,SKC,0.11,WeatherDisplay:10.37,2013-05-18 16:52:00,
2013-05-18 12:57:00,78.1,69.5,29.82,WNW,292,5.8,5.8,75,0.00,CLR,SKC,0.11,WeatherDisplay:10.37,2013-05-18 16:57:00,
2013-05-18 13:02:00,78.1,69.9,29.82,NW,315,3.5,3.5,76,0.00,CLR,SKC,0.11,WeatherDisplay:10.37,2013-05-18 17:02:00,
2013-05-18 13:07:00,78.6,70.4,29.81,NE,45,3.5,3.5,76,0.00,CLR,SKC,0.11,WeatherDisplay:10.37,2013-05-18 17:07:00,
2013-05-18 13:12:00,79.2,70.2,29.81,North,0,2.3,2.3,74,0.00,CLR,SKC,0.11,WeatherDisplay:10.37,2013-05-18 17:12:00,
2013-05-18 13:17:00,81.5,72.0,29.81,NW,315,2.3,2.3,73,0.00,CLR,SKC,0.11,WeatherDisplay:10.37,2013-05-18 17:17:00,
2013-05-18 13:22:00,82.0,71.3,29.81,ENE,68,2.3,2.3,70,0.00,CLR,SKC,0.11,WeatherDisplay:10.37,2013-05-18 17:22:00,
2013-05-18 13:27:00,81.9,70.7,29.81,SSE,158,2.3,2.3,69,0.00,CLR,SKC,0.11,WeatherDisplay:10.37,2013-05-18 17:27:00,
2013-05-18 13:32:00,81.7,70.5,29.81,East,90,1.1,1.1,69,0.00,CLR,SKC,0.11,WeatherDisplay:10.37,2013-05-18 17:32:00,
2013-05-18 13:37:00,81.9,69.8,29.81,NE,45,3.5,3.5,67,0.00,CLR,SKC,0.11,WeatherDisplay:10.37,2013-05-18 17:37:00,
2013-05-18 13:42:00,81.7,70.1,29.81,North,0,3.5,3.5,68,0.00,CLR,SKC,0.11,WeatherDisplay:10.37,2013-05-18 17:42:00,
2013-05-18 13:47:00,81.9,71.5,29.81,North,0,1.1,1.6,71,0.00,CLR,SKC,0.11,WeatherDisplay:10.37,2013-05-18 17:47:00,
2013-05-18 13:52:00,82.4,71.2,29.80,North,0,2.3,2.3,69,0.00,CLR,SKC,0.11,WeatherDisplay:10.37,2013-05-18 17:52:00,
2013-05-18 13:57:00,83.3,71.2,29.80,NW,315,3.5,3.5,67,0.00,CLR,SKC,0.11,WeatherDisplay:10.37,2013-05-18 17:57:00,
2013-05-18 14:02:00,82.6,70.9,29.80,North,0,3.5,3.5,68,0.00,CLR,SKC,0.11,WeatherDisplay:10.37,2013-05-18 18:02:00,
2013-05-18 14:07:00,82.4,70.3,29.80,WNW,292,3.5,0.0,67,0.00,CLR,SKC,0.11,WeatherDisplay:10.37,2013-05-18 18:07:00,
2013-05-18 14:12:00,82.0,69.6,29.80,NNW,338,2.3,2.3,66,0.00,CLR,SKC,0.11,WeatherDisplay:10.37,2013-05-18 18:12:00,
2013-05-18 14:17:00,80.8,67.0,29.80,NW,315,5.8,5.8,63,0.00,CLR,SKC,0.11,WeatherDisplay:10.37,2013-05-18 18:17:00,
2013-05-18 14:22:00,80.6,67.7,29.80,WNW,292,6.0,6.0,65,0.00,CLR,SKC,0.11,WeatherDisplay:10.37,2013-05-18 18:22:00,
2013-05-18 14:27:00,80.4,68.5,29.80,North,0,5.8,5.8,67,0.00,CLR,SKC,0.11,WeatherDisplay:10.37,2013-05-18 18:27:00,
2013-05-18 14:32:00,80.6,67.3,29.79,NW,315,3.5,3.5,64,0.00,CLR,SKC,0.11,WeatherDisplay:10.37,2013-05-18 18:32:00,
2013-05-18 14:37:00,81.0,67.6,29.79,North,0,3.5,3.5,64,0.00,CLR,SKC,0.11,WeatherDisplay:10.37,2013-05-18 18:37:00,
2013-05-18 14:42:00,81.1,67.8,29.79,North,0,1.1,0.0,64,0.00,CLR,SKC,0.11,WeatherDisplay:10.37,2013-05-18 18:42:00,
2013-05-18 14:47:00,81.0,67.6,29.79,North,0,1.1,1.1,64,0.00,CLR,SKC,0.11,WeatherDisplay:10.37,2013-05-18 18:47:00,
2013-05-18 14:52:00,81.0,66.2,29.78,North,0,3.5,3.5,61,0.00,CLR,SKC,0.11,WeatherDisplay:10.37,2013-05-18 18:52:00,
2013-05-18 14:57:00,81.0,67.2,29.78,North,0,3.5,3.5,63,0.00,CLR,SKC,0.11,WeatherDisplay:10.37,2013-05-18 18:57:00,
2013-05-18 15:02:00,81.3,67.5,29.78,NW,315,1.1,1.1,63,0.00,CLR,SKC,0.11,WeatherDisplay:10.37,2013-05-18 19:02:00,
2013-05-18 15:07:00,81.9,68.0,29.79,SE,135,3.5,3.5,63,0.00,CLR,SKC,0.11,WeatherDisplay:10.37,2013-05-18 19:07:00,
2013-05-18 15:12:00,80.1,70.2,29.79,South,180,6.9,7.6,72,0.00,CLR,SKC,0.11,WeatherDisplay:10.37,2013-05-18 19:12:00,
2013-05-18 15:17:00,78.8,71.0,29.79,South,180,5.8,5.8,77,0.00,CLR,SKC,0.11,WeatherDisplay:10.37,2013-05-18 19:17:00,
2013-05-18 15:22:00,79.5,71.7,29.78,SE,135,3.5,3.5,77,0.00,CLR,SKC,0.11,WeatherDisplay:10.37,2013-05-18 19:22:00,
2013-05-18 15:27:00,81.0,71.9,29.78,SE,135,5.8,5.8,74,0.00,CLR,SKC,0.11,WeatherDisplay:10.37,2013-05-18 19:27:00,
2013-05-18 15:32:00,82.0,71.3,29.78,ESE,112,8.1,8.1,70,0.00,CLR,SKC,0.11,WeatherDisplay:10.37,2013-05-18 19:32:00,
2013-05-18 15:37:00,82.4,70.8,29.78,North,0,5.8,5.8,68,0.00,CLR,SKC,0.11,WeatherDisplay:10.37,2013-05-18 19:37:00,
2013-05-18 15:42:00,83.3,71.6,29.78,SSE,158,3.5,4.5,68,0.00,CLR,SKC,0.11,WeatherDisplay:10.37,2013-05-18 19:42:00,
2013-05-18 15:47:00,81.7,69.7,29.78,SE,135,8.1,8.1,67,0.00,CLR,SKC,0.11,WeatherDisplay:10.37,2013-05-18 19:47:00,
2013-05-18 15:52:00,79.9,69.6,29.78,South,180,5.8,5.8,71,0.00,CLR,SKC,0.11,WeatherDisplay:10.37,2013-05-18 19:52:00,
2013-05-18 15:57:00,80.4,70.6,29.78,SE,135,4.6,4.6,72,0.00,CLR,SKC,0.11,WeatherDisplay:10.37,2013-05-18 19:57:00,
2013-05-18 16:02:00,81.5,69.9,29.78,NE,45,5.8,5.8,68,0.00,CLR,SKC,0.11,WeatherDisplay:10.37,2013-05-18 20:02:00,
2013-05-18 16:07:00,81.7,69.7,29.78,South,180,5.8,5.8,67,0.00,CLR,SKC,0.11,WeatherDisplay:10.37,2013-05-18 20:07:00,
2013-05-18 16:12:00,80.4,69.3,29.78,SW,225,4.6,0.0,69,0.00,CLR,SKC,0.11,WeatherDisplay:10.37,2013-05-18 20:12:00,
2013-05-18 16:17:00,80.1,69.4,29.78,NW,315,3.5,3.5,70,0.00,CLR,SKC,0.11,WeatherDisplay:10.37,2013-05-18 20:17:00,
2013-05-18 16:22:00,79.9,69.2,29.77,WNW,292,2.3,2.3,70,0.00,CLR,SKC,0.11,WeatherDisplay:10.37,2013-05-18 20:22:00,
2013-05-18 16:27:00,80.1,69.8,29.77,SE,135,4.5,4.5,71,0.00,CLR,SKC,0.11,WeatherDisplay:10.37,2013-05-18 20:27:00,
2013-05-18 16:32:00,80.1,69.4,29.77,SE,135,3.5,4.5,70,0.00,CLR,SKC,0.11,WeatherDisplay:10.37,2013-05-18 20:32:00,
2013-05-18 16:37:00,79.0,67.5,29.77,SE,135,5.8,5.8,68,0.00,CLR,SKC,0.11,WeatherDisplay:10.37,2013-05-18 20:37:00,
2013-05-18 16:42:00,78.8,67.8,29.77,SE,135,3.5,3.5,69,0.00,CLR,SKC,0.11,WeatherDisplay:10.37,2013-05-18 20:42:00,
2013-05-18 16:47:00,78.8,67.8,29.77,SE,135,4.6,4.6,69,0.00,CLR,SKC,0.11,WeatherDisplay:10.37,2013-05-18 20:47:00,
2013-05-18 16:52:00,78.6,68.0,29.77,East,90,3.5,3.5,70,0.00,CLR,SKC,0.11,WeatherDisplay:10.37,2013-05-18 20:52:00,
2013-05-18 16:57:00,78.6,68.4,29.77,SE,135,2.3,2.3,71,0.00,CLR,SKC,0.11,WeatherDisplay:10.37,2013-05-18 20:57:00,
2013-05-18 17:02:00,79.2,68.5,29.77,NW,315,3.5,3.5,70,0.00,CLR,SKC,0.11,WeatherDisplay:10.37,2013-05-18 21:02:00,
2013-05-18 17:07:00,79.5,69.3,29.77,SE,135,5.8,5.8,71,0.00,CLR,SKC,0.11,WeatherDisplay:10.37,2013-05-18 21:07:00,
2013-05-18 17:12:00,78.8,69.0,29.77,SW,225,5.8,5.8,72,0.00,CLR,SKC,0.11,WeatherDisplay:10.37,2013-05-18 21:12:00,
2013-05-18 17:17:00,78.6,70.0,29.77,South,180,3.5,3.5,75,0.00,CLR,SKC,0.11,WeatherDisplay:10.37,2013-05-18 21:17:00,
2013-05-18 17:22:00,78.4,70.2,29.77,SW,225,5.8,5.8,76,0.00,CLR,SKC,0.11,WeatherDisplay:10.37,2013-05-18 21:22:00,
2013-05-18 17:27:00,78.1,69.9,29.77,East,90,3.5,3.5,76,0.00,CLR,SKC,0.11,WeatherDisplay:10.37,2013-05-18 21:27:00,
2013-05-18 17:32:00,77.7,69.5,29.77,NE,45,2.3,2.3,76,0.00,CLR,SKC,0.11,WeatherDisplay:10.37,2013-05-18 21:32:00,
2013-05-18 17:37:00,77.5,69.8,29.77,NE,45,2.3,0.0,77,0.00,CLR,SKC,0.11,WeatherDisplay:10.37,2013-05-18 21:37:00,
2013-05-18 17:42:00,77.7,69.9,29.77,SW,225,3.5,3.5,77,0.00,CLR,SKC,0.11,WeatherDisplay:10.37,2013-05-18 21:42:00,
2013-05-18 17:47:00,77.7,69.9,29.77,East,90,3.5,3.5,77,0.00,CLR,SKC,0.11,WeatherDisplay:10.37,2013-05-18 21:47:00,
2013-05-18 17:52:00,77.5,69.8,29.76,East,90,3.5,0.0,77,0.00,CLR,SKC,0.11,WeatherDisplay:10.37,2013-05-18 21:52:00,
2013-05-18 17:57:00,77.5,69.8,29.76,East,90,3.5,3.5,77,0.00,CLR,SKC,0.11,WeatherDisplay:10.37,2013-05-18 21:57:00,
2013-05-18 18:02:00,77.4,70.0,29.77,West,270,2.3,2.3,78,0.00,CLR,SKC,0.11,WeatherDisplay:10.37,2013-05-18 22:02:00,
2013-05-18 18:07:00,77.2,69.8,29.77,East,90,3.5,3.5,78,0.00,CLR,SKC,0.11,WeatherDisplay:10.37,2013-05-18 22:07:00,
2013-05-18 18:12:00,77.0,69.2,29.77,East,90,3.5,3.5,77,0.00,CLR,SKC,0.11,WeatherDisplay:10.37,2013-05-18 22:12:00,
2013-05-18 18:17:00,76.8,69.8,29.77,NE,45,3.5,3.5,79,0.00,CLR,SKC,0.11,WeatherDisplay:10.37,2013-05-18 22:17:00,
2013-05-18 18:22:00,76.6,69.6,29.77,NW,315,2.3,2.3,79,0.00,CLR,SKC,0.11,WeatherDisplay:10.37,2013-05-18 22:22:00,
2013-05-18 18:27:00,76.3,70.0,29.77,ENE,68,2.3,2.3,81,0.00,CLR,SKC,0.11,WeatherDisplay:10.37,2013-05-18 22:27:00,
2013-05-18 18:32:00,75.7,69.5,29.77,NE,45,5.8,5.8,81,0.00,CLR,SKC,0.11,WeatherDisplay:10.37,2013-05-18 22:32:00,
2013-05-18 18:37:00,75.6,69.3,29.77,North,0,4.6,4.6,81,0.00,CLR,SKC,0.11,WeatherDisplay:10.37,2013-05-18 22:37:00,
2013-05-18 18:42:00,75.4,69.5,29.77,NE,45,2.3,2.3,82,0.00,CLR,SKC,0.11,WeatherDisplay:10.37,2013-05-18 22:42:00,
2013-05-18 18:47:00,75.2,69.3,29.78,NE,45,3.5,3.5,82,0.00,CLR,SKC,0.11,WeatherDisplay:10.37,2013-05-18 22:47:00,
2013-05-18 18:52:00,74.8,69.7,29.77,NW,315,5.8,5.8,84,0.00,CLR,SKC,0.11,WeatherDisplay:10.37,2013-05-18 22:52:00,
2013-05-18 18:57:00,74.7,69.8,29.78,East,90,3.5,3.5,85,0.00,CLR,SKC,0.11,WeatherDisplay:10.37,2013-05-18 22:57:00,
2013-05-18 19:02:00,74.7,69.8,29.78,NE,45,3.5,3.5,85,0.00,CLR,SKC,0.11,WeatherDisplay:10.37,2013-05-18 23:02:00,
2013-05-18 19:07:00,74.5,69.7,29.77,SE,135,3.5,3.5,85,0.00,CLR,SKC,0.11,WeatherDisplay:10.37,2013-05-18 23:07:00,
2013-05-18 19:12:00,74.5,69.7,29.78,North,0,2.3,2.3,85,0.00,CLR,SKC,0.11,WeatherDisplay:10.37,2013-05-18 23:12:00,
2013-05-18 19:17:00,74.3,69.5,29.78,North,0,3.5,3.5,85,0.00,CLR,SKC,0.11,WeatherDisplay:10.37,2013-05-18 23:17:00,
2013-05-18 19:22:00,74.3,69.5,29.78,NW,315,2.3,2.3,85,0.00,CLR,SKC,0.11,WeatherDisplay:10.37,2013-05-18 23:22:00,
2013-05-18 19:27:00,73.9,69.5,29.78,NE,45,3.5,3.5,86,0.00,CLR,SKC,0.11,WeatherDisplay:10.37,2013-05-18 23:27:00,
2013-05-18 19:32:00,73.9,69.5,29.79,North,0,3.5,3.5,86,0.00,CLR,SKC,0.11,WeatherDisplay:10.37,2013-05-18 23:32:00,
2013-05-18 19:37:00,73.8,69.3,29.79,NW,315,5.8,5.8,86,0.00,CLR,SKC,0.11,WeatherDisplay:10.37,2013-05-18 23:37:00,
2013-05-18 19:42:00,73.6,69.1,29.79,NW,315,3.5,3.5,86,0.00,CLR,SKC,0.11,WeatherDisplay:10.37,2013-05-18 23:42:00,
2013-05-18 19:47:00,73.4,68.6,29.79,East,90,3.5,3.5,85,0.00,CLR,SKC,0.11,WeatherDisplay:10.37,2013-05-18 23:47:00,
2013-05-18 19:52:00,73.2,67.4,29.79,NW,315,4.6,4.6,82,0.00,CLR,SKC,0.11,WeatherDisplay:10.37,2013-05-18 23:52:00,
2013-05-18 19:57:00,73.0,66.9,29.80,East,90,3.5,3.5,81,0.00,CLR,SKC,0.11,WeatherDisplay:10.37,2013-05-18 23:57:00,
2013-05-18 20:02:00,72.7,66.5,29.79,West,270,4.6,4.6,81,0.00,CLR,SKC,0.11,WeatherDisplay:10.37,2013-05-19 00:02:00,
2013-05-18 20:07:00,72.3,66.2,29.79,ESE,112,3.5,3.5,81,0.00,CLR,SKC,0.11,WeatherDisplay:10.37,2013-05-19 00:07:00,
2013-05-18 20:12:00,72.1,66.0,29.79,SE,135,3.5,3.5,81,0.00,CLR,SKC,0.11,WeatherDisplay:10.37,2013-05-19 00:12:00,
2013-05-18 20:17:00,71.8,66.0,29.80,North,0,3.5,3.5,82,0.00,CLR,SKC,0.11,WeatherDisplay:10.37,2013-05-19 00:17:00,
2013-05-18 20:22:00,71.4,66.0,29.79,NNW,338,8.3,8.3,83,0.00,CLR,SKC,0.11,WeatherDisplay:10.37,2013-05-19 00:22:00,
2013-05-18 20:27:00,71.2,65.8,29.80,North,0,5.8,5.8,83,0.00,CLR,SKC,0.11,WeatherDisplay:10.37,2013-05-19 00:27:00,
2013-05-18 20:32:00,71.1,65.6,29.80,NW,315,5.8,5.8,83,0.00,CLR,SKC,0.11,WeatherDisplay:10.37,2013-05-19 00:32:00,
2013-05-18 20:37:00,70.9,65.8,29.81,NW,315,8.1,8.1,84,0.00,CLR,SKC,0.11,WeatherDisplay:10.37,2013-05-19 00:37:00,
2013-05-18 20:42:00,70.9,65.5,29.80,NW,315,8.3,8.3,83,0.00,CLR,SKC,0.11,WeatherDisplay:10.37,2013-05-19 00:42:00,
2013-05-18 20:47:00,70.7,64.9,29.81,North,0,5.8,5.8,82,0.00,CLR,SKC,0.11,WeatherDisplay:10.37,2013-05-19 00:47:00,
2013-05-18 20:52:00,70.5,65.1,29.81,WNW,292,6.9,6.9,83,0.00,CLR,SKC,0.11,WeatherDisplay:10.37,2013-05-19 00:52:00,
2013-05-18 20:57:00,70.5,65.1,29.81,NW,315,9.2,9.2,83,0.00,CLR,SKC,0.11,WeatherDisplay:10.37,2013-05-19 00:57:00,
2013-05-18 21:02:00,70.3,65.3,29.80,North,0,8.1,8.1,84,0.00,CLR,SKC,0.11,WeatherDisplay:10.37,2013-05-19 01:02:00,
2013-05-18 21:07:00,70.0,65.3,29.81,NW,315,6.9,6.9,85,0.00,CLR,SKC,0.11,WeatherDisplay:10.37,2013-05-19 01:07:00,
2013-05-18 21:12:00,69.4,65.7,29.81,NW,315,3.5,3.5,88,0.00,CLR,SKC,0.11,WeatherDisplay:10.37,2013-05-19 01:12:00,
2013-05-18 21:17:00,69.3,65.9,29.81,North,0,10.4,10.4,89,0.00,CLR,SKC,0.11,WeatherDisplay:10.37,2013-05-19 01:17:00,
2013-05-18 21:22:00,69.1,66.0,29.81,NW,315,5.8,5.8,90,0.00,CLR,SKC,0.11,WeatherDisplay:10.37,2013-05-19 01:22:00,
2013-05-18 21:27:00,69.1,66.3,29.81,WNW,292,8.1,8.1,91,0.00,CLR,SKC,0.11,WeatherDisplay:10.37,2013-05-19 01:27:00,
2013-05-18 21:32:00,68.9,66.5,29.81,NW,315,5.8,5.8,92,0.00,CLR,SKC,0.11,WeatherDisplay:10.37,2013-05-19 01:32:00,
2013-05-18 21:37:00,68.9,66.8,29.81,North,0,5.8,5.8,93,0.00,CLR,SKC,0.11,WeatherDisplay:10.37,2013-05-19 01:37:00,
2013-05-18 21:42:00,68.7,66.6,29.81,NW,315,5.8,5.8,93,0.00,CLR,SKC,0.11,WeatherDisplay:10.37,2013-05-19 01:42:00,
2013-05-18 21:47:00,68.7,66.9,29.82,North,0,5.8,5.8,94,0.00,CLR,SKC,0.11,WeatherDisplay:10.37,2013-05-19 01:47:00,
2013-05-18 21:52:00,68.5,67.1,29.82,NNW,338,5.8,5.8,95,0.00,CLR,SKC,0.11,WeatherDisplay:10.37,2013-05-19 01:52:00,
2013-05-18 21:57:00,68.4,66.9,29.82,North,0,6.9,6.9,95,0.01,RA,SKC,0.12,WeatherDisplay:10.37,2013-05-19 01:57:00,
2013-05-18 22:02:00,68.4,66.9,29.82,North,0,3.5,3.8,95,0.01,RA,SKC,0.12,WeatherDisplay:10.37,2013-05-19 02:02:00,
2013-05-18 22:07:00,68.4,67.2,29.82,West,270,6.9,6.9,96,0.01,,SKC,0.12,WeatherDisplay:10.37,2013-05-19 02:07:00,
2013-05-18 22:12:00,68.4,67.2,29.82,NW,315,4.6,4.6,96,0.01,CLR,SKC,0.12,WeatherDisplay:10.37,2013-05-19 02:12:00,
2013-05-18 22:17:00,68.4,67.5,29.82,North,0,5.8,5.8,97,0.01,CLR,SKC,0.12,WeatherDisplay:10.37,2013-05-19 02:17:00,
2013-05-18 22:22:00,68.4,67.5,29.82,WNW,292,8.1,8.1,97,0.01,CLR,SKC,0.12,WeatherDisplay:10.37,2013-05-19 02:22:00,
2013-05-18 22:27:00,68.4,67.5,29.81,North,0,8.1,8.1,97,0.02,RA,SKC,0.13,WeatherDisplay:10.37,2013-05-19 02:27:00,
2013-05-18 22:32:00,68.4,67.5,29.81,NNW,338,5.8,5.8,97,0.02,RA,SKC,0.13,WeatherDisplay:10.37,2013-05-19 02:32:00,
2013-05-18 22:37:00,68.2,67.3,29.81,West,270,5.8,5.8,97,0.02,,SKC,0.13,WeatherDisplay:10.37,2013-05-19 02:37:00,
2013-05-18 22:42:00,68.2,67.3,29.81,NW,315,5.8,5.8,97,0.02,CLR,SKC,0.13,WeatherDisplay:10.37,2013-05-19 02:42:00,
2013-05-18 22:47:00,68.2,67.3,29.81,NW,315,4.6,4.6,97,0.02,CLR,SKC,0.13,WeatherDisplay:10.37,2013-05-19 02:47:00,
2013-05-18 22:52:00,68.2,67.3,29.81,NW,315,2.3,2.3,97,0.02,CLR,SKC,0.13,WeatherDisplay:10.37,2013-05-19 02:52:00,
2013-05-18 22:57:00,68.2,67.3,29.81,North,0,1.1,1.1,97,0.02,RA,SKC,0.14,WeatherDisplay:10.37,2013-05-19 02:57:00,
2013-05-18 23:02:00,68.0,67.1,29.81,NW,315,1.1,0.0,97,0.02,RA,SKC,0.14,WeatherDisplay:10.37,2013-05-19 03:02:00,
2013-05-18 23:07:00,68.0,67.1,29.81,NW,315,0.0,0.0,97,0.02,,SKC,0.14,WeatherDisplay:10.37,2013-05-19 03:07:00,
2013-05-18 23:12:00,67.8,67.2,29.81,NW,315,0.0,0.0,98,0.02,CLR,SKC,0.14,WeatherDisplay:10.37,2013-05-19 03:12:00,
2013-05-18 23:17:00,67.6,67.1,29.81,NW,315,0.0,0.0,98,0.02,CLR,SKC,0.14,WeatherDisplay:10.37,2013-05-19 03:17:00,
2013-05-18 23:22:00,68.0,67.1,29.81,SSE,158,2.3,2.3,97,0.02,CLR,SKC,0.14,WeatherDisplay:10.37,2013-05-19 03:22:00,
2013-05-18 23:27:00,68.0,67.4,29.82,SE,135,2.3,2.3,98,0.01,CLR,SKC,0.14,WeatherDisplay:10.37,2013-05-19 03:27:00,
2013-05-18 23:32:00,68.0,67.4,29.82,SE,135,2.3,2.3,98,0.02,RA,SKC,0.15,WeatherDisplay:10.37,2013-05-19 03:32:00,
2013-05-18 23:37:00,68.0,67.4,29.82,South,180,1.1,1.1,98,0.02,RA,SKC,0.15,WeatherDisplay:10.37,2013-05-19 03:37:00,
2013-05-18 23:42:00,68.0,67.4,29.82,SE,135,2.3,0.0,98,0.02,,SKC,0.15,WeatherDisplay:10.37,2013-05-19 03:42:00,
2013-05-18 23:47:00,68.0,67.4,29.82,East,90,0.0,0.0,98,0.02,CLR,SKC,0.15,WeatherDisplay:10.37,2013-05-19 03:47:00,
2013-05-18 23:52:00,67.8,67.5,29.82,SE,135,0.0,0.0,99,0.02,CLR,SKC,0.15,WeatherDisplay:10.37,2013-05-19 03:52:00,
2013-05-18 23:57:00,67.8,67.5,29.82,West,270,0.0,0.0,99,0.01,CLR,SKC,0.15,WeatherDisplay:10.37,2013-05-19 03:57:00,